Aérodrome :
LOGIN :

S'inscrire | Disclaimer

   EN    FR    IT 

 










Légende :    VFR   VFR Marginal   IFR   IFR Intensif   IFR Très Intensif
Visi : 
Plafond : 
>= 8 km
>= 3000ft
5 à 8 km
1000 à 3000 ft
1500m à 5 km
500 à 1000 ft
800 à 1500m
200 à 500 ft
< 800m
< 200 ft
Symboles :   Orages  Brouillard  Fortes neiges  Fortes précipitations  Vent > 20 kt
SIGMETs :   Divers  Orages  Givrage  Turbulence  Onde Orograph.  Cendres Volcan.







- Altitude de l'aérodrome : 844 ft
- Code IATA : OSR


LKMT - Ostrava-Mosnov

DERNIER METAR :
  • 222000Z 07005KT 9999 FEW048 19/18 Q1015 NOSIG

METARs EXPIRÉS :
  • 221930Z 01003KT 9999 -RA FEW050CB 19/18 Q1015 NOSIG
  • 221900Z 22007KT 9999 -TSRA FEW050CB 19/18 Q1016 NOSIG
  • 221830Z 24012KT 6000 TSRA FEW025 SCT050CB 19/18 Q1015 NOSIG
  • 221800Z 23009KT 2500 TSRA FEW033 SCT050CB 21/17 Q1015 NOSIG
  • 221730Z 20014G26KT 150V220 4000 TSRA SCT050CB 24/18 Q1013 NOSIG

TAF TAF LKMT
Valide du 22 à 18h jusqu'au 24 à 00h UTC


221700Z 2218/2400 22005KT CAVOK
TEMPO 2218/2223 04012KT 8000 SHRA SCT040TCU
PROB40
TEMPO 2218/2220 30014G24KT 4000 TSRA BKN030CB
TEMPO 2223/2305 3000 BR SCT003
PROB30
TEMPO 2300/2304 0500 FG BKN002
PROB40
TEMPO 2310/2317 24015G30KT 4000 TSRA BKN030CB
Pas de NOTAMs connus pour ce terrain.



MET'MAP, la Météo Aéronautique d'un coup d'oeil ! - Copyright ORBIFLY Décembre 2007 - Disclaimer

ORBIFLY MET'MAP TEAM :

Programmation & Développement : Alexandra Zaïnal
Conception & Développement : Baudouin d'Aumeries
Co-Programmation & Développement : Marc-Olivier Méhu
Soutien technique & logistique : Manuel Goepfert

Contact : metmap@orbifly.com




SOURCES & CREDITS :

   NOAA